sensor_id;sensor_type;location;lat;lon;timestamp;P1;durP1;ratioP1;P2;durP2;ratioP2
47153;SDS011;32907;41.412;2.164;2022-12-18T00:01:25;9.43;;;8.10;;
47153;SDS011;32907;41.412;2.164;2022-12-18T00:03:55;9.75;;;6.72;;
47153;SDS011;32907;41.412;2.164;2022-12-18T00:06:24;8.40;;;7.22;;
47153;SDS011;32907;41.412;2.164;2022-12-18T00:08:54;9.75;;;7.72;;
47153;SDS011;32907;41.412;2.164;2022-12-18T00:11:24;8.60;;;7.10;;
47153;SDS011;32907;41.412;2.164;2022-12-18T00:13:55;8.63;;;6.78;;
47153;SDS011;32907;41.412;2.164;2022-12-18T00:16:25;9.68;;;7.15;;
47153;SDS011;32907;41.412;2.164;2022-12-18T00:18:55;8.98;;;6.90;;
47153;SDS011;32907;41.412;2.164;2022-12-18T00:21:23;6.88;;;5.93;;
47153;SDS011;32907;41.412;2.164;2022-12-18T00:23:51;8.57;;;6.32;;
47153;SDS011;32907;41.412;2.164;2022-12-18T00:26:20;7.38;;;6.03;;
47153;SDS011;32907;41.412;2.164;2022-12-18T00:29:17;7.72;;;6.32;;
47153;SDS011;32907;41.412;2.164;2022-12-18T00:31:44;8.43;;;6.88;;
47153;SDS011;32907;41.412;2.164;2022-12-18T00:34:12;8.60;;;7.28;;
47153;SDS011;32907;41.412;2.164;2022-12-18T00:36:40;10.30;;;8.25;;
47153;SDS011;32907;41.412;2.164;2022-12-18T00:39:09;8.93;;;7.28;;
47153;SDS011;32907;41.412;2.164;2022-12-18T00:41:39;9.02;;;7.72;;
47153;SDS011;32907;41.412;2.164;2022-12-18T00:44:36;9.18;;;6.75;;
47153;SDS011;32907;41.412;2.164;2022-12-18T00:47:05;9.15;;;6.68;;
47153;SDS011;32907;41.412;2.164;2022-12-18T00:49:32;8.18;;;6.68;;
47153;SDS011;32907;41.412;2.164;2022-12-18T00:52:00;8.23;;;6.03;;
47153;SDS011;32907;41.412;2.164;2022-12-18T00:54:28;8.57;;;7.45;;
47153;SDS011;32907;41.412;2.164;2022-12-18T00:56:56;11.13;;;8.18;;
47153;SDS011;32907;41.412;2.164;2022-12-18T00:59:24;9.75;;;8.27;;
47153;SDS011;32907;41.412;2.164;2022-12-18T01:01:53;9.10;;;7.25;;
47153;SDS011;32907;41.412;2.164;2022-12-18T01:04:21;12.68;;;8.05;;
47153;SDS011;32907;41.412;2.164;2022-12-18T01:06:49;10.32;;;7.70;;
47153;SDS011;32907;41.412;2.164;2022-12-18T01:09:16;10.15;;;8.32;;
47153;SDS011;32907;41.412;2.164;2022-12-18T01:11:44;9.80;;;8.02;;
47153;SDS011;32907;41.412;2.164;2022-12-18T01:14:12;10.27;;;7.95;;
47153;SDS011;32907;41.412;2.164;2022-12-18T01:16:40;9.25;;;7.25;;
47153;SDS011;32907;41.412;2.164;2022-12-18T01:19:08;11.02;;;7.70;;
47153;SDS011;32907;41.412;2.164;2022-12-18T01:21:36;10.52;;;7.80;;
47153;SDS011;32907;41.412;2.164;2022-12-18T01:24:04;8.85;;;7.50;;
47153;SDS011;32907;41.412;2.164;2022-12-18T01:26:33;9.27;;;7.70;;
47153;SDS011;32907;41.412;2.164;2022-12-18T01:29:01;9.00;;;7.38;;
47153;SDS011;32907;41.412;2.164;2022-12-18T01:31:30;9.35;;;7.88;;
47153;SDS011;32907;41.412;2.164;2022-12-18T01:34:02;9.25;;;7.18;;
47153;SDS011;32907;41.412;2.164;2022-12-18T01:36:35;8.10;;;7.05;;
47153;SDS011;32907;41.412;2.164;2022-12-18T01:39:09;10.57;;;8.23;;
47153;SDS011;32907;41.412;2.164;2022-12-18T01:41:41;11.65;;;8.50;;
47153;SDS011;32907;41.412;2.164;2022-12-18T01:47:26;10.65;;;7.88;;
47153;SDS011;32907;41.412;2.164;2022-12-18T01:49:56;9.70;;;7.50;;
47153;SDS011;32907;41.412;2.164;2022-12-18T01:52:28;9.30;;;7.25;;
47153;SDS011;32907;41.412;2.164;2022-12-18T01:54:59;9.48;;;7.57;;
47153;SDS011;32907;41.412;2.164;2022-12-18T01:57:29;8.15;;;6.90;;
47153;SDS011;32907;41.412;2.164;2022-12-18T01:59:59;7.38;;;6.10;;
47153;SDS011;32907;41.412;2.164;2022-12-18T02:02:40;8.40;;;6.28;;
47153;SDS011;32907;41.412;2.164;2022-12-18T02:05:10;8.82;;;6.18;;
47153;SDS011;32907;41.412;2.164;2022-12-18T02:13:36;7.93;;;5.45;;
47153;SDS011;32907;41.412;2.164;2022-12-18T02:22:01;6.80;;;5.30;;
47153;SDS011;32907;41.412;2.164;2022-12-18T02:27:46;6.68;;;5.28;;
47153;SDS011;32907;41.412;2.164;2022-12-18T02:30:16;7.22;;;5.50;;
47153;SDS011;32907;41.412;2.164;2022-12-18T02:32:47;6.68;;;4.80;;
47153;SDS011;32907;41.412;2.164;2022-12-18T02:35:23;7.10;;;4.80;;
47153;SDS011;32907;41.412;2.164;2022-12-18T02:37:58;5.47;;;4.13;;
47153;SDS011;32907;41.412;2.164;2022-12-18T02:40:29;6.47;;;4.18;;
47153;SDS011;32907;41.412;2.164;2022-12-18T02:43:02;5.70;;;4.22;;
47153;SDS011;32907;41.412;2.164;2022-12-18T02:45:48;6.55;;;4.43;;
47153;SDS011;32907;41.412;2.164;2022-12-18T02:48:19;5.53;;;4.45;;
47153;SDS011;32907;41.412;2.164;2022-12-18T02:51:04;6.68;;;4.28;;
47153;SDS011;32907;41.412;2.164;2022-12-18T02:53:50;6.25;;;4.75;;
47153;SDS011;32907;41.412;2.164;2022-12-18T02:56:31;6.63;;;4.45;;
47153;SDS011;32907;41.412;2.164;2022-12-18T02:59:08;6.07;;;4.40;;
47153;SDS011;32907;41.412;2.164;2022-12-18T03:02:16;6.65;;;4.18;;
47153;SDS011;32907;41.412;2.164;2022-12-18T03:04:54;4.88;;;3.75;;
47153;SDS011;32907;41.412;2.164;2022-12-18T03:10:48;4.75;;;4.10;;
47153;SDS011;32907;41.412;2.164;2022-12-18T03:13:24;4.68;;;3.70;;
47153;SDS011;32907;41.412;2.164;2022-12-18T03:16:03;6.68;;;4.20;;
47153;SDS011;32907;41.412;2.164;2022-12-18T03:18:40;5.15;;;3.58;;
47153;SDS011;32907;41.412;2.164;2022-12-18T03:21:16;4.00;;;3.13;;
47153;SDS011;32907;41.412;2.164;2022-12-18T03:23:50;5.82;;;3.58;;
47153;SDS011;32907;41.412;2.164;2022-12-18T03:26:24;4.63;;;3.53;;
47153;SDS011;32907;41.412;2.164;2022-12-18T03:28:59;4.43;;;3.72;;
47153;SDS011;32907;41.412;2.164;2022-12-18T03:31:33;4.78;;;3.45;;
47153;SDS011;32907;41.412;2.164;2022-12-18T03:34:04;5.65;;;3.38;;
47153;SDS011;32907;41.412;2.164;2022-12-18T03:36:42;4.70;;;3.22;;
47153;SDS011;32907;41.412;2.164;2022-12-18T03:39:12;4.80;;;3.92;;
47153;SDS011;32907;41.412;2.164;2022-12-18T03:44:56;4.43;;;3.45;;
47153;SDS011;32907;41.412;2.164;2022-12-18T03:50:21;4.82;;;3.67;;
47153;SDS011;32907;41.412;2.164;2022-12-18T03:55:46;4.45;;;3.92;;
47153;SDS011;32907;41.412;2.164;2022-12-18T03:58:17;5.10;;;3.40;;
47153;SDS011;32907;41.412;2.164;2022-12-18T04:01:05;5.47;;;3.88;;
47153;SDS011;32907;41.412;2.164;2022-12-18T04:03:39;3.95;;;3.40;;
47153;SDS011;32907;41.412;2.164;2022-12-18T04:06:09;4.88;;;3.55;;
47153;SDS011;32907;41.412;2.164;2022-12-18T04:08:40;4.53;;;3.45;;
47153;SDS011;32907;41.412;2.164;2022-12-18T04:11:11;4.93;;;3.67;;
47153;SDS011;32907;41.412;2.164;2022-12-18T04:13:39;4.28;;;3.67;;
47153;SDS011;32907;41.412;2.164;2022-12-18T04:16:17;5.40;;;3.75;;
47153;SDS011;32907;41.412;2.164;2022-12-18T04:18:46;3.80;;;3.40;;
47153;SDS011;32907;41.412;2.164;2022-12-18T04:21:14;4.25;;;3.70;;
47153;SDS011;32907;41.412;2.164;2022-12-18T04:23:42;4.75;;;3.72;;
47153;SDS011;32907;41.412;2.164;2022-12-18T04:26:10;6.18;;;3.72;;
47153;SDS011;32907;41.412;2.164;2022-12-18T04:29:01;5.53;;;3.42;;
47153;SDS011;32907;41.412;2.164;2022-12-18T04:31:28;5.82;;;4.57;;
47153;SDS011;32907;41.412;2.164;2022-12-18T04:33:57;4.70;;;3.85;;
47153;SDS011;32907;41.412;2.164;2022-12-18T04:36:25;4.72;;;3.70;;
47153;SDS011;32907;41.412;2.164;2022-12-18T04:38:54;5.28;;;4.25;;
47153;SDS011;32907;41.412;2.164;2022-12-18T04:41:22;4.70;;;3.83;;
47153;SDS011;32907;41.412;2.164;2022-12-18T04:43:52;5.05;;;3.70;;
47153;SDS011;32907;41.412;2.164;2022-12-18T04:46:21;4.68;;;3.72;;
47153;SDS011;32907;41.412;2.164;2022-12-18T04:48:49;5.38;;;3.55;;
47153;SDS011;32907;41.412;2.164;2022-12-18T04:51:17;5.35;;;4.00;;
47153;SDS011;32907;41.412;2.164;2022-12-18T04:53:52;5.07;;;3.95;;
47153;SDS011;32907;41.412;2.164;2022-12-18T04:56:21;3.75;;;2.95;;
47153;SDS011;32907;41.412;2.164;2022-12-18T04:58:49;4.45;;;3.67;;
47153;SDS011;32907;41.412;2.164;2022-12-18T05:01:17;4.95;;;3.80;;
47153;SDS011;32907;41.412;2.164;2022-12-18T05:03:46;4.43;;;3.53;;
47153;SDS011;32907;41.412;2.164;2022-12-18T05:06:14;4.72;;;3.80;;
47153;SDS011;32907;41.412;2.164;2022-12-18T05:08:42;4.68;;;3.58;;
47153;SDS011;32907;41.412;2.164;2022-12-18T05:11:11;5.90;;;4.18;;
47153;SDS011;32907;41.412;2.164;2022-12-18T05:13:44;4.50;;;4.10;;
47153;SDS011;32907;41.412;2.164;2022-12-18T05:16:13;5.80;;;4.28;;
47153;SDS011;32907;41.412;2.164;2022-12-18T05:18:41;4.35;;;3.63;;
47153;SDS011;32907;41.412;2.164;2022-12-18T05:21:09;4.53;;;3.55;;
47153;SDS011;32907;41.412;2.164;2022-12-18T05:23:36;4.65;;;3.55;;
47153;SDS011;32907;41.412;2.164;2022-12-18T05:26:05;4.20;;;3.80;;
47153;SDS011;32907;41.412;2.164;2022-12-18T05:28:35;4.47;;;3.95;;
47153;SDS011;32907;41.412;2.164;2022-12-18T05:31:03;4.80;;;3.80;;
47153;SDS011;32907;41.412;2.164;2022-12-18T05:33:33;5.13;;;4.00;;
47153;SDS011;32907;41.412;2.164;2022-12-18T05:36:03;4.22;;;3.60;;
47153;SDS011;32907;41.412;2.164;2022-12-18T05:38:34;3.80;;;3.40;;
47153;SDS011;32907;41.412;2.164;2022-12-18T05:41:04;6.75;;;3.88;;
47153;SDS011;32907;41.412;2.164;2022-12-18T05:43:33;4.55;;;4.10;;
47153;SDS011;32907;41.412;2.164;2022-12-18T05:46:07;5.22;;;4.25;;
47153;SDS011;32907;41.412;2.164;2022-12-18T05:48:38;44.35;;;10.38;;
47153;SDS011;32907;41.412;2.164;2022-12-18T05:51:13;55.80;;;14.70;;
47153;SDS011;32907;41.412;2.164;2022-12-18T05:53:44;55.03;;;15.25;;
47153;SDS011;32907;41.412;2.164;2022-12-18T05:56:13;40.05;;;11.35;;
47153;SDS011;32907;41.412;2.164;2022-12-18T05:58:43;22.00;;;8.50;;
47153;SDS011;32907;41.412;2.164;2022-12-18T06:01:14;18.98;;;7.80;;
47153;SDS011;32907;41.412;2.164;2022-12-18T06:03:45;15.68;;;6.97;;
47153;SDS011;32907;41.412;2.164;2022-12-18T06:06:22;20.50;;;7.63;;
47153;SDS011;32907;41.412;2.164;2022-12-18T06:08:52;12.73;;;6.32;;
47153;SDS011;32907;41.412;2.164;2022-12-18T06:11:22;9.70;;;5.13;;
47153;SDS011;32907;41.412;2.164;2022-12-18T06:13:55;8.48;;;5.38;;
47153;SDS011;32907;41.412;2.164;2022-12-18T06:16:26;10.02;;;5.63;;
47153;SDS011;32907;41.412;2.164;2022-12-18T06:18:58;9.02;;;5.53;;
47153;SDS011;32907;41.412;2.164;2022-12-18T06:21:28;7.47;;;5.22;;
47153;SDS011;32907;41.412;2.164;2022-12-18T06:23:57;7.43;;;5.45;;
47153;SDS011;32907;41.412;2.164;2022-12-18T06:26:25;8.70;;;5.53;;
47153;SDS011;32907;41.412;2.164;2022-12-18T06:28:55;7.20;;;5.38;;
47153;SDS011;32907;41.412;2.164;2022-12-18T06:31:25;6.40;;;4.78;;
47153;SDS011;32907;41.412;2.164;2022-12-18T06:33:53;8.55;;;5.15;;
47153;SDS011;32907;41.412;2.164;2022-12-18T06:36:21;8.27;;;5.63;;
47153;SDS011;32907;41.412;2.164;2022-12-18T06:38:49;6.65;;;5.50;;
47153;SDS011;32907;41.412;2.164;2022-12-18T06:41:18;7.40;;;5.45;;
47153;SDS011;32907;41.412;2.164;2022-12-18T06:43:48;9.40;;;5.20;;
47153;SDS011;32907;41.412;2.164;2022-12-18T06:46:16;6.90;;;5.70;;
47153;SDS011;32907;41.412;2.164;2022-12-18T06:48:46;5.32;;;4.75;;
47153;SDS011;32907;41.412;2.164;2022-12-18T06:51:17;6.53;;;5.03;;
47153;SDS011;32907;41.412;2.164;2022-12-18T06:53:46;6.50;;;5.30;;
47153;SDS011;32907;41.412;2.164;2022-12-18T06:56:14;6.03;;;4.97;;
47153;SDS011;32907;41.412;2.164;2022-12-18T06:58:41;5.78;;;5.07;;
47153;SDS011;32907;41.412;2.164;2022-12-18T07:01:10;6.00;;;5.35;;
47153;SDS011;32907;41.412;2.164;2022-12-18T07:03:40;5.97;;;5.07;;
47153;SDS011;32907;41.412;2.164;2022-12-18T07:06:17;5.43;;;4.90;;
47153;SDS011;32907;41.412;2.164;2022-12-18T07:08:46;5.85;;;5.20;;
47153;SDS011;32907;41.412;2.164;2022-12-18T07:11:15;5.63;;;5.10;;
47153;SDS011;32907;41.412;2.164;2022-12-18T07:13:44;7.30;;;5.22;;
47153;SDS011;32907;41.412;2.164;2022-12-18T07:16:16;6.00;;;4.47;;
47153;SDS011;32907;41.412;2.164;2022-12-18T07:18:52;8.73;;;6.72;;
47153;SDS011;32907;41.412;2.164;2022-12-18T07:21:22;9.02;;;6.93;;
47153;SDS011;32907;41.412;2.164;2022-12-18T07:23:51;6.82;;;6.13;;
47153;SDS011;32907;41.412;2.164;2022-12-18T07:26:20;6.30;;;5.63;;
47153;SDS011;32907;41.412;2.164;2022-12-18T07:28:48;6.88;;;6.00;;
47153;SDS011;32907;41.412;2.164;2022-12-18T07:31:17;6.50;;;5.20;;
47153;SDS011;32907;41.412;2.164;2022-12-18T07:33:48;7.15;;;5.57;;
47153;SDS011;32907;41.412;2.164;2022-12-18T07:36:17;6.07;;;5.30;;
47153;SDS011;32907;41.412;2.164;2022-12-18T07:38:48;5.78;;;5.15;;
47153;SDS011;32907;41.412;2.164;2022-12-18T07:41:16;6.20;;;5.30;;
47153;SDS011;32907;41.412;2.164;2022-12-18T07:43:46;8.13;;;6.63;;
47153;SDS011;32907;41.412;2.164;2022-12-18T07:46:14;17.73;;;15.07;;
47153;SDS011;32907;41.412;2.164;2022-12-18T07:48:43;18.23;;;14.63;;
47153;SDS011;32907;41.412;2.164;2022-12-18T07:51:15;16.02;;;12.68;;
47153;SDS011;32907;41.412;2.164;2022-12-18T07:53:44;14.60;;;10.27;;
47153;SDS011;32907;41.412;2.164;2022-12-18T07:56:14;9.90;;;8.38;;
47153;SDS011;32907;41.412;2.164;2022-12-18T07:58:58;8.50;;;7.47;;
47153;SDS011;32907;41.412;2.164;2022-12-18T08:01:29;9.63;;;6.47;;
47153;SDS011;32907;41.412;2.164;2022-12-18T08:03:57;7.20;;;6.30;;
47153;SDS011;32907;41.412;2.164;2022-12-18T08:06:25;6.13;;;5.10;;
47153;SDS011;32907;41.412;2.164;2022-12-18T08:08:54;14.63;;;11.48;;
47153;SDS011;32907;41.412;2.164;2022-12-18T08:11:23;18.23;;;16.15;;
47153;SDS011;32907;41.412;2.164;2022-12-18T08:13:53;23.45;;;19.17;;
47153;SDS011;32907;41.412;2.164;2022-12-18T08:16:21;20.48;;;16.02;;
47153;SDS011;32907;41.412;2.164;2022-12-18T08:18:51;13.30;;;8.35;;
47153;SDS011;32907;41.412;2.164;2022-12-18T08:21:24;14.05;;;9.90;;
47153;SDS011;32907;41.412;2.164;2022-12-18T08:23:54;15.27;;;9.52;;
47153;SDS011;32907;41.412;2.164;2022-12-18T08:26:26;10.18;;;8.07;;
47153;SDS011;32907;41.412;2.164;2022-12-18T08:28:56;10.23;;;7.85;;
47153;SDS011;32907;41.412;2.164;2022-12-18T08:31:25;12.32;;;8.57;;
47153;SDS011;32907;41.412;2.164;2022-12-18T08:33:55;10.13;;;8.68;;
47153;SDS011;32907;41.412;2.164;2022-12-18T08:36:24;12.55;;;8.23;;
47153;SDS011;32907;41.412;2.164;2022-12-18T08:38:53;9.32;;;7.22;;
47153;SDS011;32907;41.412;2.164;2022-12-18T08:41:21;8.60;;;7.53;;
47153;SDS011;32907;41.412;2.164;2022-12-18T08:43:49;12.77;;;8.05;;
47153;SDS011;32907;41.412;2.164;2022-12-18T08:46:38;9.03;;;7.53;;
47153;SDS011;32907;41.412;2.164;2022-12-18T08:49:07;10.20;;;8.70;;
47153;SDS011;32907;41.412;2.164;2022-12-18T08:51:37;11.27;;;9.27;;
47153;SDS011;32907;41.412;2.164;2022-12-18T08:54:06;9.82;;;8.68;;
47153;SDS011;32907;41.412;2.164;2022-12-18T08:56:36;10.23;;;8.93;;
47153;SDS011;32907;41.412;2.164;2022-12-18T08:59:04;9.82;;;7.97;;
47153;SDS011;32907;41.412;2.164;2022-12-18T09:01:32;11.80;;;8.90;;
47153;SDS011;32907;41.412;2.164;2022-12-18T09:04:01;12.40;;;8.02;;
47153;SDS011;32907;41.412;2.164;2022-12-18T09:06:30;9.40;;;7.97;;
47153;SDS011;32907;41.412;2.164;2022-12-18T09:08:58;9.63;;;8.30;;
47153;SDS011;32907;41.412;2.164;2022-12-18T09:11:28;10.13;;;8.55;;
47153;SDS011;32907;41.412;2.164;2022-12-18T09:13:57;9.85;;;8.68;;
47153;SDS011;32907;41.412;2.164;2022-12-18T09:16:26;11.45;;;8.82;;
47153;SDS011;32907;41.412;2.164;2022-12-18T09:18:59;13.30;;;9.23;;
47153;SDS011;32907;41.412;2.164;2022-12-18T09:21:29;11.20;;;8.20;;
47153;SDS011;32907;41.412;2.164;2022-12-18T09:24:03;9.38;;;8.18;;
47153;SDS011;32907;41.412;2.164;2022-12-18T09:26:35;8.38;;;7.57;;
47153;SDS011;32907;41.412;2.164;2022-12-18T09:29:04;8.05;;;7.25;;
47153;SDS011;32907;41.412;2.164;2022-12-18T09:31:34;10.50;;;8.68;;
47153;SDS011;32907;41.412;2.164;2022-12-18T09:34:04;9.73;;;7.38;;
47153;SDS011;32907;41.412;2.164;2022-12-18T09:36:33;13.85;;;7.90;;
47153;SDS011;32907;41.412;2.164;2022-12-18T09:39:02;8.93;;;7.65;;
47153;SDS011;32907;41.412;2.164;2022-12-18T09:49:46;14.68;;;10.85;;
47153;SDS011;32907;41.412;2.164;2022-12-18T09:58:16;18.77;;;11.98;;
47153;SDS011;32907;41.412;2.164;2022-12-18T10:00:51;20.88;;;10.88;;
47153;SDS011;32907;41.412;2.164;2022-12-18T10:03:19;19.23;;;10.57;;
47153;SDS011;32907;41.412;2.164;2022-12-18T10:06:01;16.02;;;9.93;;
47153;SDS011;32907;41.412;2.164;2022-12-18T10:25:24;12.85;;;8.00;;
47153;SDS011;32907;41.412;2.164;2022-12-18T10:28:00;12.98;;;8.10;;
47153;SDS011;32907;41.412;2.164;2022-12-18T10:30:38;12.55;;;8.00;;
47153;SDS011;32907;41.412;2.164;2022-12-18T10:33:10;13.07;;;7.93;;
47153;SDS011;32907;41.412;2.164;2022-12-18T10:35:42;11.07;;;7.95;;
47153;SDS011;32907;41.412;2.164;2022-12-18T10:40:54;13.05;;;10.55;;
47153;SDS011;32907;41.412;2.164;2022-12-18T10:43:25;12.95;;;10.32;;
47153;SDS011;32907;41.412;2.164;2022-12-18T10:48:31;12.20;;;9.48;;
47153;SDS011;32907;41.412;2.164;2022-12-18T10:51:00;16.88;;;11.18;;
47153;SDS011;32907;41.412;2.164;2022-12-18T10:53:39;15.05;;;10.30;;
47153;SDS011;32907;41.412;2.164;2022-12-18T10:56:10;12.95;;;8.85;;
47153;SDS011;32907;41.412;2.164;2022-12-18T10:58:39;13.70;;;9.80;;
47153;SDS011;32907;41.412;2.164;2022-12-18T11:03:59;17.58;;;11.20;;
47153;SDS011;32907;41.412;2.164;2022-12-18T11:06:29;14.30;;;10.68;;
47153;SDS011;32907;41.412;2.164;2022-12-18T11:09:02;12.30;;;9.40;;
47153;SDS011;32907;41.412;2.164;2022-12-18T11:11:39;10.48;;;7.82;;
47153;SDS011;32907;41.412;2.164;2022-12-18T11:14:18;10.65;;;7.57;;
47153;SDS011;32907;41.412;2.164;2022-12-18T11:16:50;11.07;;;7.82;;
47153;SDS011;32907;41.412;2.164;2022-12-18T11:19:39;9.52;;;6.85;;
47153;SDS011;32907;41.412;2.164;2022-12-18T11:22:30;7.78;;;6.32;;
47153;SDS011;32907;41.412;2.164;2022-12-18T11:25:00;11.95;;;6.60;;
47153;SDS011;32907;41.412;2.164;2022-12-18T11:28:01;8.55;;;6.43;;
47153;SDS011;32907;41.412;2.164;2022-12-18T11:30:33;8.10;;;6.70;;
47153;SDS011;32907;41.412;2.164;2022-12-18T11:38:23;9.27;;;7.93;;
47153;SDS011;32907;41.412;2.164;2022-12-18T11:43:35;14.45;;;11.60;;
47153;SDS011;32907;41.412;2.164;2022-12-18T11:46:19;12.15;;;9.77;;
47153;SDS011;32907;41.412;2.164;2022-12-18T11:52:00;9.82;;;6.43;;
47153;SDS011;32907;41.412;2.164;2022-12-18T11:54:46;13.90;;;10.47;;
47153;SDS011;32907;41.412;2.164;2022-12-18T11:57:25;13.70;;;9.93;;
47153;SDS011;32907;41.412;2.164;2022-12-18T12:00:15;14.30;;;10.98;;
47153;SDS011;32907;41.412;2.164;2022-12-18T12:05:57;15.07;;;11.75;;
47153;SDS011;32907;41.412;2.164;2022-12-18T12:11:30;18.17;;;11.40;;
47153;SDS011;32907;41.412;2.164;2022-12-18T12:25:28;20.73;;;15.05;;
47153;SDS011;32907;41.412;2.164;2022-12-18T12:38:51;12.43;;;9.00;;
47153;SDS011;32907;41.412;2.164;2022-12-18T12:44:15;10.93;;;7.90;;
47153;SDS011;32907;41.412;2.164;2022-12-18T12:46:49;9.23;;;6.82;;
47153;SDS011;32907;41.412;2.164;2022-12-18T12:49:22;11.63;;;7.63;;
47153;SDS011;32907;41.412;2.164;2022-12-18T12:54:35;17.13;;;11.20;;
47153;SDS011;32907;41.412;2.164;2022-12-18T13:00:11;17.45;;;11.50;;
47153;SDS011;32907;41.412;2.164;2022-12-18T13:05:43;16.38;;;12.10;;
47153;SDS011;32907;41.412;2.164;2022-12-18T13:08:27;13.93;;;11.95;;
47153;SDS011;32907;41.412;2.164;2022-12-18T13:11:02;18.63;;;14.38;;
47153;SDS011;32907;41.412;2.164;2022-12-18T13:13:55;15.77;;;12.57;;
47153;SDS011;32907;41.412;2.164;2022-12-18T13:16:24;16.98;;;13.45;;
47153;SDS011;32907;41.412;2.164;2022-12-18T13:18:55;16.33;;;11.98;;
47153;SDS011;32907;41.412;2.164;2022-12-18T13:21:30;16.92;;;14.20;;
47153;SDS011;32907;41.412;2.164;2022-12-18T13:26:53;22.33;;;15.90;;
47153;SDS011;32907;41.412;2.164;2022-12-18T13:29:42;22.90;;;16.88;;
47153;SDS011;32907;41.412;2.164;2022-12-18T13:32:22;18.08;;;14.65;;
47153;SDS011;32907;41.412;2.164;2022-12-18T13:38:02;17.52;;;13.80;;
47153;SDS011;32907;41.412;2.164;2022-12-18T13:40:54;18.90;;;12.60;;
47153;SDS011;32907;41.412;2.164;2022-12-18T13:44:10;23.30;;;17.20;;
47153;SDS011;32907;41.412;2.164;2022-12-18T13:46:20;20.13;;;15.40;;
47153;SDS011;32907;41.412;2.164;2022-12-18T13:49:19;16.48;;;12.90;;
47153;SDS011;32907;41.412;2.164;2022-12-18T13:52:19;16.45;;;12.15;;
47153;SDS011;32907;41.412;2.164;2022-12-18T13:55:14;13.25;;;10.18;;
47153;SDS011;32907;41.412;2.164;2022-12-18T13:57:45;18.85;;;12.80;;
47153;SDS011;32907;41.412;2.164;2022-12-18T14:02:52;13.77;;;10.85;;
47153;SDS011;32907;41.412;2.164;2022-12-18T14:05:22;13.88;;;10.13;;
47153;SDS011;32907;41.412;2.164;2022-12-18T14:07:50;15.13;;;10.68;;
47153;SDS011;32907;41.412;2.164;2022-12-18T14:10:19;16.20;;;11.90;;
47153;SDS011;32907;41.412;2.164;2022-12-18T14:13:09;18.13;;;13.65;;
47153;SDS011;32907;41.412;2.164;2022-12-18T14:15:39;15.63;;;12.40;;
47153;SDS011;32907;41.412;2.164;2022-12-18T14:20:57;15.05;;;12.35;;
47153;SDS011;32907;41.412;2.164;2022-12-18T14:23:34;13.95;;;11.90;;
47153;SDS011;32907;41.412;2.164;2022-12-18T14:29:11;13.55;;;10.60;;
47153;SDS011;32907;41.412;2.164;2022-12-18T14:32:07;10.93;;;8.30;;
47153;SDS011;32907;41.412;2.164;2022-12-18T14:34:44;13.13;;;10.07;;
47153;SDS011;32907;41.412;2.164;2022-12-18T14:37:20;11.48;;;9.75;;
47153;SDS011;32907;41.412;2.164;2022-12-18T14:40:00;12.57;;;9.73;;
47153;SDS011;32907;41.412;2.164;2022-12-18T14:42:37;13.53;;;10.20;;
47153;SDS011;32907;41.412;2.164;2022-12-18T14:48:08;13.05;;;9.80;;
47153;SDS011;32907;41.412;2.164;2022-12-18T14:50:57;18.92;;;12.93;;
47153;SDS011;32907;41.412;2.164;2022-12-18T14:54:14;19.13;;;15.35;;
47153;SDS011;32907;41.412;2.164;2022-12-18T14:56:45;38.00;;;28.55;;
47153;SDS011;32907;41.412;2.164;2022-12-18T15:04:38;20.08;;;16.98;;
47153;SDS011;32907;41.412;2.164;2022-12-18T15:09:39;16.05;;;11.70;;
47153;SDS011;32907;41.412;2.164;2022-12-18T15:12:26;14.95;;;9.93;;
47153;SDS011;32907;41.412;2.164;2022-12-18T15:15:01;10.13;;;8.57;;
47153;SDS011;32907;41.412;2.164;2022-12-18T15:17:31;12.93;;;7.90;;
47153;SDS011;32907;41.412;2.164;2022-12-18T15:20:01;10.85;;;8.23;;
47153;SDS011;32907;41.412;2.164;2022-12-18T15:22:37;8.90;;;7.28;;
47153;SDS011;32907;41.412;2.164;2022-12-18T15:25:21;12.68;;;9.60;;
47153;SDS011;32907;41.412;2.164;2022-12-18T15:28:04;12.50;;;7.82;;
47153;SDS011;32907;41.412;2.164;2022-12-18T15:30:59;8.82;;;7.47;;
47153;SDS011;32907;41.412;2.164;2022-12-18T15:36:22;8.23;;;6.93;;
47153;SDS011;32907;41.412;2.164;2022-12-18T15:38:53;11.43;;;10.13;;
47153;SDS011;32907;41.412;2.164;2022-12-18T15:41:36;16.50;;;11.98;;
47153;SDS011;32907;41.412;2.164;2022-12-18T15:44:23;14.98;;;11.73;;
47153;SDS011;32907;41.412;2.164;2022-12-18T15:46:52;15.77;;;11.40;;
47153;SDS011;32907;41.412;2.164;2022-12-18T15:49:20;11.13;;;9.30;;
47153;SDS011;32907;41.412;2.164;2022-12-18T15:51:52;11.75;;;9.52;;
47153;SDS011;32907;41.412;2.164;2022-12-18T15:54:21;10.60;;;8.32;;
47153;SDS011;32907;41.412;2.164;2022-12-18T15:57:10;13.73;;;9.38;;
47153;SDS011;32907;41.412;2.164;2022-12-18T15:59:51;11.57;;;9.07;;
47153;SDS011;32907;41.412;2.164;2022-12-18T16:02:20;10.95;;;8.48;;
47153;SDS011;32907;41.412;2.164;2022-12-18T16:04:51;9.98;;;8.15;;
47153;SDS011;32907;41.412;2.164;2022-12-18T16:07:19;11.45;;;8.43;;
47153;SDS011;32907;41.412;2.164;2022-12-18T16:09:51;11.02;;;9.43;;
47153;SDS011;32907;41.412;2.164;2022-12-18T16:12:20;11.80;;;9.45;;
47153;SDS011;32907;41.412;2.164;2022-12-18T16:14:49;9.02;;;7.80;;
47153;SDS011;32907;41.412;2.164;2022-12-18T16:17:18;9.07;;;7.90;;
47153;SDS011;32907;41.412;2.164;2022-12-18T16:19:46;16.00;;;10.50;;
47153;SDS011;32907;41.412;2.164;2022-12-18T16:22:18;15.02;;;12.85;;
47153;SDS011;32907;41.412;2.164;2022-12-18T16:24:51;14.07;;;12.70;;
47153;SDS011;32907;41.412;2.164;2022-12-18T16:27:20;14.93;;;12.95;;
47153;SDS011;32907;41.412;2.164;2022-12-18T16:29:49;14.02;;;12.45;;
47153;SDS011;32907;41.412;2.164;2022-12-18T16:32:18;14.10;;;11.95;;
47153;SDS011;32907;41.412;2.164;2022-12-18T16:34:49;13.88;;;11.48;;
47153;SDS011;32907;41.412;2.164;2022-12-18T16:37:17;12.55;;;10.35;;
47153;SDS011;32907;41.412;2.164;2022-12-18T16:39:45;13.00;;;10.50;;
47153;SDS011;32907;41.412;2.164;2022-12-18T16:42:14;14.80;;;10.32;;
47153;SDS011;32907;41.412;2.164;2022-12-18T16:44:47;13.23;;;9.32;;
47153;SDS011;32907;41.412;2.164;2022-12-18T16:47:17;10.20;;;8.55;;
47153;SDS011;32907;41.412;2.164;2022-12-18T16:49:45;12.10;;;9.32;;
47153;SDS011;32907;41.412;2.164;2022-12-18T16:52:13;14.73;;;9.43;;
47153;SDS011;32907;41.412;2.164;2022-12-18T16:54:41;14.38;;;9.27;;
47153;SDS011;32907;41.412;2.164;2022-12-18T16:57:13;11.98;;;8.65;;
47153;SDS011;32907;41.412;2.164;2022-12-18T16:59:42;13.73;;;8.88;;
47153;SDS011;32907;41.412;2.164;2022-12-18T17:02:21;12.23;;;8.98;;
47153;SDS011;32907;41.412;2.164;2022-12-18T17:04:54;18.35;;;12.68;;
47153;SDS011;32907;41.412;2.164;2022-12-18T17:07:23;25.77;;;17.27;;
47153;SDS011;32907;41.412;2.164;2022-12-18T17:09:52;36.53;;;24.90;;
47153;SDS011;32907;41.412;2.164;2022-12-18T17:12:22;68.72;;;46.20;;
47153;SDS011;32907;41.412;2.164;2022-12-18T17:14:50;79.20;;;52.30;;
47153;SDS011;32907;41.412;2.164;2022-12-18T17:17:18;109.20;;;75.20;;
47153;SDS011;32907;41.412;2.164;2022-12-18T17:19:49;100.93;;;73.05;;
47153;SDS011;32907;41.412;2.164;2022-12-18T17:22:18;76.53;;;56.30;;
47153;SDS011;32907;41.412;2.164;2022-12-18T17:24:46;64.53;;;46.97;;
47153;SDS011;32907;41.412;2.164;2022-12-18T17:27:14;45.78;;;35.50;;
47153;SDS011;32907;41.412;2.164;2022-12-18T17:29:42;42.20;;;33.40;;
47153;SDS011;32907;41.412;2.164;2022-12-18T17:32:14;41.00;;;32.67;;
47153;SDS011;32907;41.412;2.164;2022-12-18T17:34:43;45.42;;;34.10;;
47153;SDS011;32907;41.412;2.164;2022-12-18T17:37:11;35.95;;;28.25;;
47153;SDS011;32907;41.412;2.164;2022-12-18T17:39:39;37.88;;;29.55;;